Date,TemperatureHighF,TemperatureAvgF,TemperatureLowF,DewpointHighF,DewpointAvgF,DewpointLowF,HumidityHigh,HumidityAvg,HumidityLow,PressureMaxIn,PressureMinIn,WindSpeedMaxMPH,WindSpeedAvgMPH,GustSpeedMaxMPH,PrecipitationSumIn
2013-6-1,68,54,46,37,33,28,61,46,23,30.67,30.52,30,12,34,0.00
2013-6-2,75,60,37,42,34,27,76,41,19,30.67,30.34,18,7,34,0.00
2013-6-3,83,68,50,40,27,15,46,24,11,30.44,30.25,31,10,40,0.00
2013-6-4,68,56,44,47,38,14,83,53,20,30.65,30.40,23,8,27,0.00
2013-6-5,60,49,41,45,41,37,99,76,55,30.67,30.55,15,6,16,0.00
2013-6-6,78,61,42,42,37,21,92,48,16,30.61,30.44,18,6,18,0.00
2013-6-7,80,64,49,48,41,38,71,45,26,30.61,30.32,16,6,17,0.00
2013-6-8,78,67,59,48,38,22,64,37,14,30.52,30.28,23,11,27,0.00
2013-6-9,83,68,48,47,39,30,72,38,18,30.55,30.37,17,7,21,0.00
2013-6-10,94,76,61,100,34,26,36,23,11,30.44,30.35,23,7,27,0.00
2013-6-11,92,79,60,39,29,16,44,18,11,30.48,30.26,31,11,37,0.00
2013-6-12,84,73,57,52,32,17,74,25,13,30.62,30.45,19,9,25,0.00
2013-6-13,79,63,52,56,52,45,92,69,42,30.64,30.40,18,5,20,0.00
2013-6-14,86,72,55,47,38,21,72,34,11,30.50,30.36,21,9,24,0.01
2013-6-15,76,68,59,51,48,44,71,49,36,30.59,30.44,17,8,17,0.01
2013-6-16,82,66,52,55,42,21,87,47,11,30.61,30.45,25,7,30,0.00
2013-6-17,80,64,53,52,45,36,85,53,22,30.64,30.50,19,7,23,0.00
2013-6-18,80,65,53,53,48,38,88,57,23,30.65,30.38,19,7,23,0.00
2013-6-19,90,70,47,54,41,16,93,45,11,30.52,30.20,18,7,23,0.00
2013-6-20,84,71,58,46,26,16,57,20,11,30.42,30.31,19,10,23,0.00
2013-6-22,62,58,54,51,49,47,78,73,63,30.45,30.40,14,6,17,0.00
2013-6-23,80,65,51,49,38,15,75,39,14,30.51,30.35,21,8,28,0.00
2013-6-24,92,72,52,52,38,21,77,36,11,30.43,30.26,28,8,28,0.00
2013-6-25,86,75,59,38,30,18,33,20,13,30.51,30.27,26,12,34,0.00
2013-6-26,92,78,58,44,35,29,45,24,11,30.58,30.42,17,7,28,0.00
2013-6-27,97,82,67,47,36,29,37,21,11,30.69,30.51,28,8,28,0.00
2013-6-28,94,76,59,61,50,43,75,43,22,30.73,30.56,21,8,28,0.02
2013-6-29,85,72,58,57,52,48,83,52,31,30.72,30.54,17,6,28,0.02
2013-6-30,78,68,57,55,52,49,80,57,40,30.70,30.61,15,5,28,0.00